Metabaru Air Base, Japan

7:42 AM JST on May 05, 2015 (GMT +0900)
Raizan Golf Club | | Change Station
CLOSE
Current Station
Personal Weather Station
Location: 糸島市, 福岡県
Elevation: 529 ft
Nearby Weather Stations

Elev 529 ft 33.52 °N, 130.26 °E | Updated 20 seconds ago

Partly Cloudy
Partly Cloudy
60.3 °F
Feels Like 60.3 °F
N
0.2
Wind Variable Wind from ESE
Gusts 1.2 mph

Today
High -- | Low -- °F
--% Chance of Precip.
Yesterday
High -- | Low -- °F
Precip. -- in
5:27 AM 7:03 PM
Full, 99% visible
Pressure 29.83 in
Visibility 6.2 miles
Clouds Few 3000 ft
Dew Point 56 °F
Humidity 85%
Rainfall 0.00 in
Snow Depth Not available.
UV 0.9 out of 12
Pollen Not available.
Air Quality Not available.
Flu Activity Not available.
METAR RJFF 042230Z VRB02KT 9999 FEW030 17/12 Q1010 RMK 1CU030 A2985

More Conditions Fewer Conditions

Pressure 29.83 in
Visibility 6.2 miles
Clouds Few 3000 ft
Dew Point 56 °F
Humidity 85%
Rainfall 0.00 in
Snow Depth Not available.
UV 0.9 out of 12
Pollen Not available.
Air Quality Not available.
Flu Activity Not available.
METAR RJFF 042230Z VRB02KT 9999 FEW030 17/12 Q1010 RMK 1CU030 A2985

More Conditions Fewer Conditions

10-Day Weather Forecast

Almanac

Astronomy

May. 05, 2015 Rise Set
Actual Time
Civil Twilight
Nautical Twilight
Astronomical Twilight
Moon
Length of Visible Light
Length of Day
Tomorrow will be .
, % of the Moon is Illuminated

Today's Extremes

Country Highs Country Lows

Community

WunderPhotos

Upload Photos

1,818,720 photos uploaded!

WunderBlogs® & News

Nearby

Air Quality

  Air Quality AQ Index Pollutant
Not available.

Snow Depth

Station Depth Elevation

Earthquake Activity

City Distance Mag. Time & Date
Minimum magnitude displayed is 2.5.

Coastal Water Temperatures

Place Temperature

Stations

Nearby Weather Stations

Station Location Temp. Windchill Dew Point Humidity Wind Precip. Elev Updated Type